Terminal Aerodrome Forecast
Issued by NWS

Home | Current Version | Previous Version | Text Only | Print | Product List | Glossary On
Versions: 1 2 3 4 5 6 7 8 9 10 11 12 13 14 15 16 17 18 19 20 21 22 23 24 25 26 27 28 29 30 31 32
932
FTUS43 KDVN 271409 AAB
TAFCID
TAF AMD
KCID 271409Z 2714/2812 03005KT 6SM BR BKN006 OVC035
      TEMPO 2714/2716 5SM -RA BR
     FM271800 02005KT 6SM BR OVC012
     FM272000 36007KT P6SM OVC015
     FM280400 01005KT 4SM BR OVC009=

USA.gov is the U.S. government's official web portal to all federal, state and local government web resources and services.